Time;durP1;ratioP1;P1;durP2;ratioP2;P2;SDS_P1;SDS_P2;PMS_P1;PMS_P2;Temp;Humidity;BMP_temperature;BMP_pressure;BME280_temperature;BME280_humidity;BME280_pressure;Samples;Min_cycle;Max_cycle;Signal;HPM_P1;HPM_P2
2021/10/06 00:01:50;;;;;;;3.17;1.45;;;12.90;99.90;;;;;;4167384;28;20063;-73
2021/10/06 00:03:50;;;;;;;4.40;1.27;;;12.90;99.90;;;;;;4168458;28;20070;-74
2021/10/06 00:05:52;;;;;;;5.57;1.40;;;12.90;99.90;;;;;;4165229;28;20055;-74
2021/10/06 00:07:52;;;;;;;6.03;1.63;;;12.90;99.90;;;;;;4168484;28;20087;-75
2021/10/06 00:09:53;;;;;;;5.38;1.35;;;12.90;99.90;;;;;;4168513;28;20067;-73
2021/10/06 00:11:54;;;;;;;7.40;1.52;;;12.90;99.90;;;;;;4171362;28;20520;-73
2021/10/06 00:13:55;;;;;;;4.97;1.50;;;12.90;99.90;;;;;;4168103;28;20064;-73
2021/10/06 00:15:55;;;;;;;3.78;1.25;;;12.90;99.90;;;;;;4165966;28;20041;-73
2021/10/06 00:17:56;;;;;;;5.18;1.73;;;12.90;99.90;;;;;;4167363;28;20050;-73
2021/10/06 00:19:57;;;;;;;3.53;1.52;;;12.90;99.90;;;;;;4170150;28;20069;-73
2021/10/06 00:21:57;;;;;;;5.32;1.55;;;12.80;99.90;;;;;;4168599;28;20025;-73
2021/10/06 00:23:58;;;;;;;5.55;1.48;;;12.80;99.90;;;;;;4169714;28;20037;-73
2021/10/06 00:26:03;;;;;;;5.20;1.35;;;12.80;99.90;;;;;;4171755;28;20372;-73
2021/10/06 00:28:04;;;;;;;4.68;1.55;;;12.80;99.90;;;;;;4168532;28;20037;-73
2021/10/06 00:30:05;;;;;;;4.57;1.20;;;12.70;99.90;;;;;;4171087;28;20060;-73
2021/10/06 00:32:06;;;;;;;4.57;1.38;;;12.70;99.90;;;;;;4167219;28;20044;-73
2021/10/06 00:34:07;;;;;;;6.22;1.45;;;12.70;99.90;;;;;;4169333;28;20117;-73
2021/10/06 00:36:07;;;;;;;4.68;1.67;;;12.70;99.90;;;;;;4168758;28;20061;-73
2021/10/06 00:38:08;;;;;;;4.57;1.20;;;12.60;99.90;;;;;;4169682;28;20102;-74
2021/10/06 00:40:09;;;;;;;7.15;1.35;;;12.60;99.90;;;;;;4167808;28;20068;-73
2021/10/06 00:42:10;;;;;;;5.82;1.40;;;12.60;99.90;;;;;;4166660;28;20026;-73
2021/10/06 00:44:20;;;;;;;5.25;1.40;;;12.60;99.90;;;;;;4169387;28;20052;-73
2021/10/06 00:46:20;;;;;;;4.70;1.77;;;12.60;99.90;;;;;;4174224;28;20044;-74
2021/10/06 00:48:21;;;;;;;9.73;2.05;;;12.60;99.90;;;;;;4167699;28;20037;-73
2021/10/06 00:50:22;;;;;;;8.43;2.08;;;12.60;99.90;;;;;;4164698;28;20045;-73
2021/10/06 00:52:23;;;;;;;7.20;2.00;;;12.50;99.90;;;;;;4153382;28;20080;-73
2021/10/06 00:54:23;;;;;;;3.85;1.45;;;12.50;99.90;;;;;;4155595;28;20168;-74
2021/10/06 00:56:24;;;;;;;3.83;1.30;;;12.60;99.90;;;;;;4153153;28;20041;-73
2021/10/06 00:58:25;;;;;;;4.45;1.50;;;12.60;99.90;;;;;;4153661;28;20595;-73
2021/10/06 01:00:25;;;;;;;5.03;1.75;;;12.50;99.90;;;;;;4158389;28;20029;-73
2021/10/06 01:02:26;;;;;;;7.45;1.92;;;12.50;99.90;;;;;;4156449;28;20038;-73
2021/10/06 01:04:27;;;;;;;8.90;1.20;;;12.50;99.90;;;;;;4152848;28;20115;-74
2021/10/06 01:06:27;;;;;;;5.20;1.70;;;12.50;99.90;;;;;;4152911;28;20175;-73
2021/10/06 01:08:28;;;;;;;5.47;1.40;;;12.50;99.90;;;;;;4155820;28;21602;-73
2021/10/06 01:10:29;;;;;;;6.07;1.55;;;12.50;99.90;;;;;;4155811;28;20037;-72
2021/10/06 01:12:30;;;;;;;5.45;1.30;;;12.50;99.90;;;;;;4153507;28;20180;-73
2021/10/06 01:14:31;;;;;;;5.57;1.80;;;12.50;99.90;;;;;;4155978;28;20069;-73
2021/10/06 01:16:32;;;;;;;5.28;1.55;;;12.50;99.90;;;;;;4159606;28;20133;-73
2021/10/06 01:18:33;;;;;;;5.53;1.48;;;12.50;99.90;;;;;;4154132;28;20507;-73
2021/10/06 01:20:34;;;;;;;8.65;1.90;;;12.50;99.90;;;;;;4151428;28;20049;-73
2021/10/06 01:22:35;;;;;;;5.85;1.48;;;12.50;99.90;;;;;;4152772;28;20076;-73
2021/10/06 01:24:35;;;;;;;7.25;1.88;;;12.50;99.90;;;;;;4155835;28;20489;-73
2021/10/06 01:26:36;;;;;;;5.50;1.50;;;12.50;99.90;;;;;;4157131;28;20107;-73
2021/10/06 01:28:36;;;;;;;4.97;1.33;;;12.60;99.90;;;;;;4157481;28;20034;-73
2021/10/06 01:30:37;;;;;;;7.97;1.58;;;12.60;99.90;;;;;;4155858;28;20033;-73
2021/10/06 01:32:39;;;;;;;8.68;2.13;;;12.60;99.90;;;;;;4156577;28;20723;-73
2021/10/06 01:34:41;;;;;;;10.20;2.13;;;12.60;99.90;;;;;;4155052;28;20033;-73
2021/10/06 01:36:41;;;;;;;5.35;1.20;;;12.60;99.90;;;;;;4153210;28;21047;-73
2021/10/06 01:38:42;;;;;;;7.15;1.58;;;12.60;99.90;;;;;;4153766;28;20041;-73
2021/10/06 01:40:43;;;;;;;6.72;2.17;;;12.60;99.90;;;;;;4155258;28;20049;-73
2021/10/06 01:42:43;;;;;;;4.03;1.30;;;12.60;99.90;;;;;;4154484;28;20625;-73
2021/10/06 01:44:44;;;;;;;5.63;1.60;;;12.60;99.90;;;;;;4155422;28;20041;-73
2021/10/06 01:46:45;;;;;;;6.78;1.77;;;12.70;99.90;;;;;;4156807;28;20560;-73
2021/10/06 01:48:46;;;;;;;6.45;1.77;;;12.70;99.90;;;;;;4152652;28;20030;-73
2021/10/06 01:50:46;;;;;;;4.68;1.80;;;12.70;99.90;;;;;;4152722;28;22379;-73
2021/10/06 01:52:47;;;;;;;4.35;1.58;;;12.70;99.90;;;;;;4152848;28;20678;-73
2021/10/06 01:54:48;;;;;;;5.93;1.83;;;12.70;99.90;;;;;;4136175;28;20637;-73
2021/10/06 01:56:49;;;;;;;4.72;1.80;;;12.80;99.90;;;;;;4155423;28;20120;-73
2021/10/06 01:58:50;;;;;;;6.95;1.67;;;12.70;99.90;;;;;;4150914;28;20072;-73
2021/10/06 02:00:51;;;;;;;12.75;2.03;;;12.70;99.90;;;;;;4155315;28;20524;-73
2021/10/06 02:02:52;;;;;;;8.35;2.38;;;12.70;99.90;;;;;;4156513;28;20033;-73
2021/10/06 02:04:52;;;;;;;7.75;2.42;;;12.70;99.90;;;;;;4148917;28;20040;-73
2021/10/06 02:06:53;;;;;;;10.35;2.30;;;12.70;99.90;;;;;;4148652;28;20121;-73
2021/10/06 02:08:54;;;;;;;10.48;2.13;;;12.70;99.90;;;;;;4150308;28;20642;-73
2021/10/06 02:10:54;;;;;;;15.75;2.58;;;12.70;99.90;;;;;;4153306;28;20029;-73
2021/10/06 02:12:56;;;;;;;7.28;2.03;;;12.70;99.90;;;;;;4153469;28;20054;-73
2021/10/06 02:14:57;;;;;;;8.43;2.22;;;12.70;99.90;;;;;;4156663;28;20025;-73
2021/10/06 02:16:57;;;;;;;8.95;2.25;;;12.60;99.90;;;;;;4151660;28;20041;-73
2021/10/06 02:18:58;;;;;;;8.77;2.00;;;12.70;99.90;;;;;;4155342;28;20037;-73
2021/10/06 02:20:59;;;;;;;12.05;2.10;;;12.60;99.90;;;;;;4152853;28;20025;-73
2021/10/06 02:23:00;;;;;;;8.75;2.08;;;12.70;99.90;;;;;;4153565;28;20033;-73
2021/10/06 02:25:01;;;;;;;10.80;2.28;;;12.60;99.90;;;;;;4151545;28;20034;-73
2021/10/06 02:27:01;;;;;;;11.35;2.33;;;12.60;99.90;;;;;;4151628;28;20030;-73
2021/10/06 02:29:03;;;;;;;14.02;2.03;;;12.60;99.90;;;;;;4135898;28;20080;-73
2021/10/06 02:31:03;;;;;;;4.50;1.58;;;12.60;99.90;;;;;;4151060;28;20037;-73
2021/10/06 02:33:04;;;;;;;9.45;2.17;;;12.60;99.90;;;;;;4151130;28;20029;-73
2021/10/06 02:35:07;;;;;;;4.38;2.03;;;12.60;99.90;;;;;;4152339;28;20108;-73
2021/10/06 02:37:07;;;;;;;10.00;2.15;;;12.60;99.90;;;;;;4153755;28;20073;-73
2021/10/06 02:39:08;;;;;;;6.18;1.90;;;12.60;99.90;;;;;;4154774;28;20056;-73
2021/10/06 02:41:09;;;;;;;5.35;1.55;;;12.60;99.90;;;;;;4154823;28;20120;-73
2021/10/06 02:43:09;;;;;;;7.93;2.00;;;12.60;99.90;;;;;;4150448;28;20053;-73
2021/10/06 02:45:12;;;;;;;4.90;1.52;;;12.50;99.90;;;;;;4154719;28;20041;-73
2021/10/06 02:47:13;;;;;;;10.57;2.08;;;12.50;99.90;;;;;;4153760;28;20053;-73
2021/10/06 02:49:14;;;;;;;11.25;1.83;;;12.50;99.90;;;;;;4153101;28;20041;-73
2021/10/06 02:51:14;;;;;;;8.00;1.90;;;12.50;99.90;;;;;;4153795;28;20635;-73
2021/10/06 02:53:15;;;;;;;10.07;2.28;;;12.50;99.90;;;;;;4154017;28;20037;-73
2021/10/06 02:55:18;;;;;;;6.55;1.50;;;12.40;99.90;;;;;;4151793;28;20037;-73
2021/10/06 02:57:18;;;;;;;5.22;1.50;;;12.40;99.90;;;;;;4150171;28;20069;-73
2021/10/06 02:59:19;;;;;;;6.40;1.88;;;12.50;99.90;;;;;;4151089;28;20045;-73
2021/10/06 03:01:19;;;;;;;6.07;1.90;;;12.40;99.90;;;;;;4151391;28;20041;-72
2021/10/06 03:03:21;;;;;;;11.27;2.20;;;12.40;99.90;;;;;;4167762;28;20688;-72
2021/10/06 03:05:22;;;;;;;6.93;2.13;;;12.40;99.90;;;;;;4168805;28;20068;-73
2021/10/06 03:07:22;;;;;;;9.07;2.20;;;12.40;99.90;;;;;;4174329;28;20059;-73
2021/10/06 03:09:23;;;;;;;5.95;1.67;;;12.40;99.90;;;;;;4173392;28;20041;-73
2021/10/06 03:11:23;;;;;;;6.47;1.90;;;12.40;99.90;;;;;;4169929;28;20033;-73
2021/10/06 03:13:24;;;;;;;10.10;2.13;;;12.40;99.90;;;;;;4165903;28;20040;-73
2021/10/06 03:15:25;;;;;;;6.95;1.95;;;12.30;99.90;;;;;;4169997;28;20037;-72
2021/10/06 03:17:25;;;;;;;5.10;1.63;;;12.30;99.90;;;;;;4168926;28;20044;-73
2021/10/06 03:19:26;;;;;;;5.15;1.92;;;12.40;99.90;;;;;;4170782;28;20124;-73
2021/10/06 03:21:27;;;;;;;7.38;2.20;;;12.40;99.90;;;;;;4168464;28;20037;-73
2021/10/06 03:23:27;;;;;;;8.32;1.88;;;12.40;99.90;;;;;;4172776;28;20263;-73
2021/10/06 03:25:28;;;;;;;8.27;2.00;;;12.40;99.90;;;;;;4166362;28;20047;-73
2021/10/06 03:27:28;;;;;;;8.85;1.83;;;12.40;99.90;;;;;;4168496;28;20041;-73
2021/10/06 03:29:29;;;;;;;6.22;1.92;;;12.40;99.90;;;;;;4169944;28;20497;-72
2021/10/06 03:31:30;;;;;;;4.40;1.33;;;12.50;99.90;;;;;;4171386;28;20116;-73
2021/10/06 03:33:30;;;;;;;8.57;1.95;;;12.50;99.90;;;;;;4165041;28;20551;-73
2021/10/06 03:35:31;;;;;;;9.90;2.08;;;12.50;99.90;;;;;;4173340;28;20025;-73
2021/10/06 03:37:32;;;;;;;9.10;2.00;;;12.40;99.90;;;;;;4169818;28;20036;-73
2021/10/06 03:39:33;;;;;;;7.95;1.60;;;12.50;99.90;;;;;;4170061;28;20032;-72
2021/10/06 03:41:33;;;;;;;6.00;1.77;;;12.50;99.90;;;;;;4170702;28;20067;-73
2021/10/06 03:43:34;;;;;;;6.68;1.67;;;12.50;99.90;;;;;;4169138;28;20095;-73
2021/10/06 03:45:35;;;;;;;7.60;2.10;;;12.50;99.90;;;;;;4170099;28;20060;-73
2021/10/06 03:47:36;;;;;;;11.15;1.73;;;12.50;99.90;;;;;;4167432;28;20469;-73
2021/10/06 03:49:37;;;;;;;5.25;1.65;;;12.50;99.90;;;;;;4167852;28;20075;-73
2021/10/06 03:51:37;;;;;;;4.95;1.27;;;12.50;99.90;;;;;;4168123;28;20033;-73
2021/10/06 03:53:39;;;;;;;10.18;2.10;;;12.50;99.90;;;;;;4167901;28;20048;-72
2021/10/06 03:55:40;;;;;;;9.07;1.92;;;12.50;99.90;;;;;;4171090;28;20097;-73
2021/10/06 03:57:40;;;;;;;8.13;1.90;;;12.50;99.90;;;;;;4165839;28;20067;-73
2021/10/06 03:59:41;;;;;;;9.95;2.00;;;12.50;99.90;;;;;;4167514;28;20060;-73
2021/10/06 04:01:41;;;;;;;8.63;1.65;;;12.50;99.90;;;;;;4169030;28;20033;-73
2021/10/06 04:03:42;;;;;;;5.78;1.83;;;12.50;99.90;;;;;;4169313;28;20728;-73
2021/10/06 04:05:43;;;;;;;7.07;1.70;;;12.50;99.90;;;;;;4168025;28;20048;-73
2021/10/06 04:07:43;;;;;;;9.75;1.70;;;12.50;99.90;;;;;;4169288;28;20122;-72
2021/10/06 04:09:44;;;;;;;6.00;1.63;;;12.50;99.90;;;;;;4169207;28;20527;-73
2021/10/06 04:11:45;;;;;;;8.10;2.00;;;12.60;99.90;;;;;;4171079;28;20860;-73
2021/10/06 04:13:45;;;;;;;7.70;1.67;;;12.50;99.90;;;;;;4170077;28;20167;-72
2021/10/06 04:15:46;;;;;;;8.00;1.33;;;12.50;99.90;;;;;;4171757;28;20047;-72
2021/10/06 04:17:47;;;;;;;8.27;1.85;;;12.50;99.90;;;;;;4169248;28;20037;-72
2021/10/06 04:19:48;;;;;;;4.35;1.38;;;12.50;99.90;;;;;;4171080;28;20045;-72
2021/10/06 04:21:48;;;;;;;8.95;2.10;;;12.60;99.90;;;;;;4173145;28;20033;-72
2021/10/06 04:23:49;;;;;;;4.03;1.60;;;12.60;99.90;;;;;;4158112;28;20072;-72
2021/10/06 04:25:50;;;;;;;8.90;1.98;;;12.60;99.90;;;;;;4152990;28;20041;-72
2021/10/06 04:27:50;;;;;;;9.38;2.17;;;12.60;99.90;;;;;;4154765;28;20029;-73
2021/10/06 04:29:51;;;;;;;7.40;1.77;;;12.50;99.90;;;;;;4156985;28;20552;-73
2021/10/06 04:31:51;;;;;;;6.05;1.40;;;12.50;99.90;;;;;;4157293;28;20040;-72
2021/10/06 04:33:52;;;;;;;6.32;1.60;;;12.50;99.90;;;;;;4157517;28;20124;-72
2021/10/06 04:35:52;;;;;;;4.10;1.42;;;12.50;99.90;;;;;;4156598;28;20040;-73
2021/10/06 04:37:53;;;;;;;7.13;1.80;;;12.50;99.90;;;;;;4179003;28;20037;-72
2021/10/06 04:39:54;;;;;;;8.23;1.48;;;12.50;99.90;;;;;;4175834;28;20029;-73
2021/10/06 04:41:54;;;;;;;4.90;1.42;;;12.50;99.90;;;;;;4178629;28;20025;-73
2021/10/06 04:43:55;;;;;;;8.95;1.85;;;12.50;99.90;;;;;;4177381;28;20033;-73
2021/10/06 04:45:56;;;;;;;3.63;1.20;;;12.50;99.90;;;;;;4180239;28;20029;-72
2021/10/06 04:47:56;;;;;;;6.68;1.80;;;12.60;99.90;;;;;;4175820;28;20029;-73
2021/10/06 04:49:57;;;;;;;5.53;1.85;;;12.60;99.90;;;;;;4173145;28;20038;-72
2021/10/06 04:51:57;;;;;;;5.40;1.88;;;12.60;99.90;;;;;;4185463;28;20037;-73
2021/10/06 04:53:58;;;;;;;4.65;1.60;;;12.50;99.90;;;;;;4176865;28;20041;-73
2021/10/06 04:55:59;;;;;;;5.88;1.65;;;12.50;99.90;;;;;;4179515;28;20044;-73
2021/10/06 04:57:59;;;;;;;6.22;1.80;;;12.50;99.90;;;;;;4181539;28;20051;-73
2021/10/06 05:00:00;;;;;;;8.40;2.13;;;12.50;99.90;;;;;;4163114;28;20041;-73
2021/10/06 05:02:01;;;;;;;5.72;1.77;;;12.50;99.90;;;;;;4172151;28;20041;-73
2021/10/06 05:04:01;;;;;;;3.55;1.30;;;12.50;99.90;;;;;;4174854;28;20128;-73
2021/10/06 05:06:03;;;;;;;8.07;1.25;;;12.60;99.90;;;;;;4163717;28;20497;-72
2021/10/06 05:08:05;;;;;;;5.72;1.45;;;12.50;99.90;;;;;;4179708;28;20032;-73
2021/10/06 05:10:06;;;;;;;7.32;1.70;;;12.60;99.90;;;;;;4164884;28;21110;-74
2021/10/06 05:12:07;;;;;;;8.38;1.63;;;12.60;99.90;;;;;;4150941;28;20123;-73
2021/10/06 05:14:08;;;;;;;5.85;1.58;;;12.50;99.90;;;;;;4169415;28;20418;-74
2021/10/06 05:16:08;;;;;;;5.43;1.60;;;12.50;99.90;;;;;;4171893;28;20087;-73
2021/10/06 05:18:09;;;;;;;7.32;1.67;;;12.50;99.90;;;;;;4169522;28;20037;-73
2021/10/06 05:20:10;;;;;;;5.43;1.55;;;12.50;99.90;;;;;;4153082;28;20064;-74
2021/10/06 05:22:10;;;;;;;5.07;1.50;;;12.50;99.90;;;;;;4152299;28;20060;-73
2021/10/06 05:24:11;;;;;;;9.05;1.92;;;12.50;99.90;;;;;;4154022;28;20042;-73
2021/10/06 05:26:12;;;;;;;4.57;1.50;;;12.50;99.90;;;;;;4151002;28;20037;-73
2021/10/06 05:28:12;;;;;;;6.60;1.60;;;12.50;99.90;;;;;;4151130;28;20049;-73
2021/10/06 05:30:13;;;;;;;15.10;2.28;;;12.50;99.90;;;;;;4152965;28;20057;-74
2021/10/06 05:32:14;;;;;;;10.63;1.92;;;12.50;99.90;;;;;;4151244;28;20065;-73
2021/10/06 05:34:14;;;;;;;8.05;2.10;;;12.50;99.90;;;;;;4152706;28;20051;-73
2021/10/06 05:36:16;;;;;;;6.80;1.75;;;12.50;99.90;;;;;;4149367;28;21290;-73
2021/10/06 05:38:17;;;;;;;7.20;1.40;;;12.50;99.90;;;;;;4151808;28;20049;-73
2021/10/06 05:40:18;;;;;;;6.22;1.60;;;12.40;99.90;;;;;;4150234;28;20556;-72
2021/10/06 05:42:18;;;;;;;9.57;1.88;;;12.50;99.90;;;;;;4150580;28;20070;-73
2021/10/06 05:44:19;;;;;;;12.10;1.90;;;12.50;99.90;;;;;;4153036;28;20555;-73
2021/10/06 05:46:20;;;;;;;4.82;1.30;;;12.50;99.90;;;;;;4153111;28;20624;-74
2021/10/06 05:48:20;;;;;;;5.90;1.42;;;12.50;99.90;;;;;;4154024;28;20041;-74
2021/10/06 05:50:21;;;;;;;5.05;1.52;;;12.60;99.90;;;;;;4149294;28;20049;-74
2021/10/06 05:52:22;;;;;;;10.82;2.45;;;12.50;99.90;;;;;;4151089;28;20038;-75
2021/10/06 05:54:23;;;;;;;5.18;1.42;;;12.50;99.90;;;;;;4167948;28;20037;-75
2021/10/06 05:56:24;;;;;;;9.75;1.88;;;12.40;99.90;;;;;;4167272;28;21187;-75
2021/10/06 05:58:25;;;;;;;4.45;1.48;;;12.40;99.90;;;;;;4145444;28;20123;-75
2021/10/06 06:00:26;;;;;;;7.53;2.20;;;12.40;99.90;;;;;;4166272;28;20040;-74
2021/10/06 06:02:27;;;;;;;5.95;1.60;;;12.40;99.90;;;;;;4168073;28;20045;-74
2021/10/06 06:04:28;;;;;;;4.93;1.77;;;12.30;99.90;;;;;;4166961;28;20527;-75
2021/10/06 06:06:29;;;;;;;11.43;2.08;;;12.30;99.90;;;;;;4165420;28;20037;-75
2021/10/06 06:08:31;;;;;;;7.65;1.75;;;12.30;99.90;;;;;;4168549;28;20037;-76
2021/10/06 06:10:32;;;;;;;6.32;1.92;;;12.30;99.90;;;;;;4168618;28;20133;-76
2021/10/06 06:12:33;;;;;;;7.97;1.90;;;12.30;99.90;;;;;;4166826;28;20041;-76
2021/10/06 06:14:35;;;;;;;4.72;1.50;;;12.30;99.90;;;;;;4169158;28;20068;-76
2021/10/06 06:16:36;;;;;;;5.18;1.42;;;12.30;99.90;;;;;;4167891;28;20032;-75
2021/10/06 06:18:36;;;;;;;10.70;2.22;;;12.30;99.90;;;;;;4167048;28;20033;-75
2021/10/06 06:20:37;;;;;;;11.43;2.40;;;12.30;99.90;;;;;;4149631;28;20033;-75
2021/10/06 06:22:38;;;;;;;8.27;2.17;;;12.20;99.90;;;;;;4165310;28;20708;-75
2021/10/06 06:24:39;;;;;;;6.72;1.95;;;12.20;99.90;;;;;;4165400;28;20041;-75
2021/10/06 06:26:39;;;;;;;8.30;1.90;;;12.00;99.90;;;;;;4166757;28;20033;-75
2021/10/06 06:28:41;;;;;;;5.90;2.03;;;12.00;99.90;;;;;;4165544;28;20047;-75
2021/10/06 06:30:42;;;;;;;7.35;1.92;;;11.90;99.90;;;;;;4168268;28;21281;-75
2021/10/06 06:32:43;;;;;;;8.05;1.73;;;12.00;99.90;;;;;;4150126;28;20065;-75
2021/10/06 06:34:43;;;;;;;6.63;1.65;;;11.90;99.90;;;;;;4157247;28;20067;-75
2021/10/06 06:36:44;;;;;;;7.00;1.60;;;12.00;99.90;;;;;;4167635;28;20045;-75
2021/10/06 06:38:44;;;;;;;6.60;1.60;;;12.00;99.90;;;;;;4166619;28;20041;-75
2021/10/06 06:40:45;;;;;;;6.03;1.77;;;12.00;99.90;;;;;;4166525;28;20045;-74
2021/10/06 06:42:46;;;;;;;7.43;1.55;;;11.90;99.90;;;;;;4166870;28;20171;-75
2021/10/06 06:44:46;;;;;;;4.60;1.90;;;11.90;99.90;;;;;;4149694;28;20033;-75
2021/10/06 06:46:47;;;;;;;6.38;1.75;;;11.90;99.90;;;;;;4168793;28;20041;-74
2021/10/06 06:48:48;;;;;;;7.18;2.33;;;11.80;99.90;;;;;;4167745;28;20124;-75
2021/10/06 06:50:53;;;;;;;7.10;2.30;;;11.90;99.90;;;;;;4166491;28;20040;-74
2021/10/06 06:52:54;;;;;;;6.63;1.95;;;11.90;99.90;;;;;;4165409;28;20111;-74
2021/10/06 06:54:54;;;;;;;8.52;1.92;;;11.80;99.90;;;;;;4146990;28;20089;-74
2021/10/06 06:56:55;;;;;;;9.20;1.80;;;11.80;99.90;;;;;;4167587;28;20052;-74
2021/10/06 06:58:56;;;;;;;8.75;1.52;;;11.80;99.90;;;;;;4167213;28;20492;-74
2021/10/06 07:00:56;;;;;;;4.20;1.20;;;11.90;99.90;;;;;;4165381;28;21179;-75
2021/10/06 07:02:57;;;;;;;9.18;1.80;;;11.90;99.90;;;;;;4166692;28;20114;-74
2021/10/06 07:04:58;;;;;;;6.32;1.92;;;11.90;99.90;;;;;;4168063;28;20120;-74
2021/10/06 07:06:58;;;;;;;5.55;1.45;;;11.80;99.90;;;;;;4165804;28;20090;-74
2021/10/06 07:09:00;;;;;;;6.63;2.03;;;11.90;99.90;;;;;;4168101;28;20094;-74
2021/10/06 07:11:02;;;;;;;8.23;1.65;;;11.90;99.90;;;;;;4168383;28;20021;-74
2021/10/06 07:13:03;;;;;;;5.75;1.63;;;11.90;99.90;;;;;;4166144;28;20102;-75
2021/10/06 07:15:04;;;;;;;4.50;1.88;;;11.90;99.90;;;;;;4165701;28;20037;-74
2021/10/06 07:17:05;;;;;;;7.35;2.00;;;11.90;99.90;;;;;;4165576;28;20037;-74
2021/10/06 07:19:05;;;;;;;4.88;1.40;;;11.90;99.90;;;;;;4165894;28;20798;-74
2021/10/06 07:21:06;;;;;;;5.38;1.42;;;11.90;99.90;;;;;;4166587;28;20040;-74
2021/10/06 07:23:07;;;;;;;6.22;1.60;;;11.90;99.90;;;;;;4164808;28;20059;-75
2021/10/06 07:25:08;;;;;;;8.73;2.30;;;11.90;99.90;;;;;;4168211;28;20029;-74
2021/10/06 07:27:18;;;;;;;4.10;1.60;;;11.90;99.90;;;;;;4163778;28;20046;-75
2021/10/06 07:29:19;;;;;;;7.63;2.05;;;11.80;99.90;;;;;;4133311;28;20523;-76
2021/10/06 07:31:20;;;;;;;7.57;1.55;;;11.80;99.90;;;;;;4167003;28;20156;-76
2021/10/06 07:33:23;;;;;;;8.13;1.70;;;11.80;99.90;;;;;;4165132;28;20795;-75
2021/10/06 07:35:24;;;;;;;7.22;1.30;;;11.90;99.90;;;;;;4166920;28;20079;-75
2021/10/06 07:37:24;;;;;;;13.05;2.13;;;11.80;99.90;;;;;;4162093;28;20068;-75
2021/10/06 07:39:25;;;;;;;5.63;1.45;;;11.90;99.90;;;;;;4155166;28;20037;-75
2021/10/06 07:41:27;;;;;;;7.93;1.40;;;11.80;99.90;;;;;;4151563;28;20148;-75
2021/10/06 07:43:28;;;;;;;6.38;1.48;;;11.80;99.90;;;;;;4148538;28;20041;-75
2021/10/06 07:45:28;;;;;;;4.03;1.40;;;11.80;99.90;;;;;;4150269;28;20107;-76
2021/10/06 07:47:30;;;;;;;6.72;1.67;;;11.80;99.90;;;;;;4150611;28;20057;-75
2021/10/06 07:49:31;;;;;;;6.00;1.63;;;11.80;99.90;;;;;;4148236;28;20037;-75
2021/10/06 07:51:32;;;;;;;4.95;1.42;;;11.80;99.90;;;;;;4150834;28;20121;-75
2021/10/06 07:53:32;;;;;;;8.20;1.88;;;11.70;99.90;;;;;;4150083;28;20094;-75
2021/10/06 07:55:33;;;;;;;8.25;1.80;;;11.70;99.90;;;;;;4151258;28;20042;-75
2021/10/06 07:57:35;;;;;;;8.50;1.60;;;11.70;99.90;;;;;;4151443;28;20060;-74
2021/10/06 07:59:36;;;;;;;5.83;1.37;;;11.70;99.90;;;;;;4149761;28;20528;-75
2021/10/06 08:01:37;;;;;;;4.50;1.50;;;11.60;99.90;;;;;;4147070;28;20072;-74
2021/10/06 08:03:37;;;;;;;5.30;1.30;;;11.70;99.90;;;;;;4151805;28;20030;-74
2021/10/06 08:05:38;;;;;;;6.22;1.80;;;11.60;99.90;;;;;;4152850;28;20041;-74
2021/10/06 08:07:38;;;;;;;4.82;1.10;;;11.70;99.90;;;;;;4146329;28;20124;-74
2021/10/06 08:09:39;;;;;;;7.22;2.30;;;11.70;99.90;;;;;;4144125;28;20029;-74
2021/10/06 08:11:39;;;;;;;7.65;1.65;;;11.80;99.90;;;;;;4159917;28;20028;-74
2021/10/06 08:13:40;;;;;;;6.78;1.60;;;11.80;99.90;;;;;;4145460;28;20026;-75
2021/10/06 08:15:41;;;;;;;7.18;1.55;;;11.80;99.90;;;;;;4163821;28;20033;-74
2021/10/06 08:17:41;;;;;;;9.45;1.45;;;11.70;99.90;;;;;;4165863;28;20037;-75
2021/10/06 08:19:42;;;;;;;9.23;1.50;;;11.70;99.90;;;;;;4166057;28;20037;-74
2021/10/06 08:21:45;;;;;;;5.65;1.38;;;11.80;99.90;;;;;;4166889;28;20051;-74
2021/10/06 08:23:45;;;;;;;;;;;11.80;99.90;;;;;;4170796;28;20044;-74
2021/10/06 08:25:47;;;;;;;5.68;1.83;;;11.80;99.90;;;;;;4169253;28;20634;-75
2021/10/06 08:27:47;;;;;;;9.65;1.85;;;11.80;99.90;;;;;;4167024;28;20095;-74
2021/10/06 08:29:48;;;;;;;6.00;1.70;;;11.90;99.90;;;;;;4167006;28;20052;-74
2021/10/06 08:31:49;;;;;;;7.65;1.52;;;11.80;99.90;;;;;;4155510;28;20076;-74
2021/10/06 08:33:50;;;;;;;6.50;1.35;;;11.80;99.90;;;;;;4149554;28;20534;-75
2021/10/06 08:35:51;;;;;;;9.35;2.00;;;11.80;99.90;;;;;;4149661;28;20040;-74
2021/10/06 08:37:51;;;;;;;11.32;2.25;;;11.80;99.90;;;;;;4149557;28;20037;-74
2021/10/06 08:39:52;;;;;;;5.32;1.48;;;11.90;99.90;;;;;;4150042;28;20068;-74
2021/10/06 08:42:09;;;;;;;7.03;1.33;;;11.90;99.90;;;;;;4151462;28;20049;-74
2021/10/06 08:44:46;;;;;;;7.28;1.67;;;11.90;99.90;;;;;;4106212;28;20033;-74
2021/10/06 08:46:48;;;;;;;8.27;1.70;;;11.90;99.90;;;;;;4128615;28;20526;-74
2021/10/06 08:48:56;;;;;;;8.70;1.83;;;11.90;99.90;;;;;;4126303;28;20029;-74
2021/10/06 08:51:00;;;;;;;5.35;1.63;;;12.00;99.90;;;;;;4136242;28;20049;-74
2021/10/06 08:53:08;;;;;;;6.13;1.63;;;12.10;99.90;;;;;;4093068;28;20143;-75
2021/10/06 08:55:10;;;;;;;5.65;1.50;;;12.10;99.90;;;;;;4161622;28;20040;-74
2021/10/06 08:57:18;;;;;;;6.45;1.88;;;12.10;99.90;;;;;;4165509;28;20065;-75
2021/10/06 08:59:18;;;;;;;5.43;1.50;;;12.10;99.90;;;;;;4165504;28;20041;-74
2021/10/06 09:01:23;;;;;;;4.38;1.40;;;12.10;99.90;;;;;;4167365;28;20140;-74
2021/10/06 09:03:28;;;;;;;3.22;0.93;;;12.10;99.90;;;;;;4166033;28;20033;-74
2021/10/06 09:05:29;;;;;;;6.43;1.50;;;12.10;99.90;;;;;;4166019;28;20128;-75
2021/10/06 09:07:29;;;;;;;7.25;1.33;;;12.20;99.90;;;;;;4165510;28;20052;-75
2021/10/06 09:09:32;;;;;;;3.13;1.08;;;12.20;99.90;;;;;;4165430;28;20326;-75
2021/10/06 09:11:33;;;;;;;4.47;1.30;;;12.20;99.90;;;;;;4166614;28;20055;-75
2021/10/06 09:13:36;;;;;;;3.85;1.15;;;12.20;99.90;;;;;;4164183;28;20033;-75
2021/10/06 09:15:43;;;;;;;7.70;1.88;;;12.20;99.90;;;;;;4164756;28;20561;-75
2021/10/06 09:17:55;;;;;;;3.72;1.45;;;12.20;99.90;;;;;;4165051;28;20076;-75
2021/10/06 09:19:57;;;;;;;3.90;1.40;;;12.30;99.90;;;;;;4166782;28;20044;-75
2021/10/06 09:21:58;;;;;;;6.63;1.10;;;12.20;99.90;;;;;;4168546;28;20057;-75
2021/10/06 09:23:58;;;;;;;4.15;1.27;;;12.30;99.90;;;;;;4169016;28;20743;-75
2021/10/06 09:26:03;;;;;;;5.32;1.40;;;12.20;99.90;;;;;;4165083;28;20821;-75
2021/10/06 09:28:06;;;;;;;4.65;1.30;;;12.20;99.90;;;;;;4167220;28;20055;-75
2021/10/06 09:30:15;;;;;;;6.13;1.67;;;12.20;99.90;;;;;;4166453;28;20047;-75
2021/10/06 09:32:45;;;;;;;3.55;1.15;;;12.20;99.90;;;;;;4166167;28;20407;-75
2021/10/06 09:35:02;;;;;;;4.57;1.58;;;12.20;99.90;;;;;;4163916;28;20036;-76
2021/10/06 09:37:22;;;;;;;3.83;1.23;;;12.20;99.90;;;;;;4164736;28;20033;-75
2021/10/06 09:39:23;;;;;;;4.40;1.20;;;12.20;99.90;;;;;;4169927;28;20124;-75
2021/10/06 09:41:30;;;;;;;3.30;1.48;;;12.20;99.90;;;;;;4166807;28;20072;-76
2021/10/06 09:43:30;;;;;;;3.65;1.00;;;12.20;99.90;;;;;;4166034;28;20056;-76
2021/10/06 09:45:36;;;;;;;5.05;1.25;;;12.20;99.90;;;;;;4164594;28;20075;-76
2021/10/06 09:47:57;;;;;;;6.25;1.48;;;12.20;99.90;;;;;;4168739;28;20027;-76
2021/10/06 09:50:05;;;;;;;3.88;1.05;;;12.20;99.90;;;;;;4144054;28;20021;-76
2021/10/06 09:52:22;;;;;;;3.40;1.40;;;12.20;99.90;;;;;;4168994;28;20042;-76
2021/10/06 09:54:23;;;;;;;3.25;1.08;;;12.20;99.90;;;;;;4167219;28;20493;-75
2021/10/06 09:56:23;;;;;;;4.05;1.20;;;12.10;99.90;;;;;;4166392;28;20078;-75
2021/10/06 09:58:24;;;;;;;5.45;1.25;;;12.10;99.90;;;;;;4164452;28;20421;-76
2021/10/06 10:00:25;;;;;;;2.97;1.20;;;12.10;99.90;;;;;;4164957;28;20560;-75
2021/10/06 10:02:26;;;;;;;2.60;1.35;;;12.10;99.90;;;;;;4166078;28;20036;-75
2021/10/06 10:04:28;;;;;;;5.35;1.40;;;12.20;99.90;;;;;;4166575;28;20424;-75
2021/10/06 10:06:29;;;;;;;2.60;1.08;;;12.10;99.90;;;;;;4166930;28;20036;-75
2021/10/06 10:08:30;;;;;;;3.88;1.17;;;12.10;99.90;;;;;;4165699;28;20032;-75
2021/10/06 10:10:35;;;;;;;1.95;1.17;;;12.10;99.90;;;;;;4165826;28;20056;-75
2021/10/06 10:12:36;;;;;;;3.05;1.10;;;12.10;99.90;;;;;;4138557;28;20136;-75
2021/10/06 10:14:39;;;;;;;4.45;1.40;;;12.10;99.90;;;;;;4152798;28;20057;-75
2021/10/06 10:16:39;;;;;;;4.22;1.08;;;12.10;99.90;;;;;;4149055;28;20057;-75
2021/10/06 10:18:40;;;;;;;2.92;1.20;;;12.10;99.90;;;;;;4150180;28;20046;-75
2021/10/06 10:20:42;;;;;;;2.03;0.80;;;12.20;99.90;;;;;;4147465;28;20040;-75
2021/10/06 10:22:47;;;;;;;3.88;1.20;;;12.10;99.90;;;;;;4149112;28;20049;-75
2021/10/06 10:24:50;;;;;;;1.90;0.93;;;12.20;99.90;;;;;;4148879;28;20048;-75
2021/10/06 10:27:03;;;;;;;2.63;1.20;;;12.20;99.90;;;;;;4148223;28;20041;-75
2021/10/06 10:29:37;;;;;;;2.53;1.38;;;12.20;99.90;;;;;;4164381;28;20100;-75
2021/10/06 10:32:24;;;;;;;1.73;0.80;;;12.20;99.90;;;;;;4163013;28;20045;-75
2021/10/06 10:34:59;;;;;;;2.50;0.95;;;12.20;99.90;;;;;;4158437;28;20511;-75